VNX weather

Vilankulo Airport
Vilanculo, Inhambane Province, Mozambique

Public forecast

Using degrees Celsius for public forecast. Weather courtesy of forecast.io.

METAR (pilot weather report)

Retrieved 2019/06/25 11:00 UTC (25 minutes ago):

FQVL 251100Z 13009KT 100V170 9999 BKN020 26/18 Q1020

TAF (pilot weather forecast)

Retrieved 2019/06/25 06:12 UTC (5 hours ago):

TAF FQVL 250400Z 2506/2606 17008KT 9999 SCT020 TX25/2513Z TN16/2603Z BECMG 2512/2514 10012KT BECMG 2519/2521 19006KT